Time;durP1;ratioP1;P1;durP2;ratioP2;P2;SDS_P1;SDS_P2;PMS_P1;PMS_P2;Temp;Humidity;BMP_temperature;BMP_pressure;BME280_temperature;BME280_humidity;BME280_pressure;Samples;Min_cycle;Max_cycle;Signal;HPM_P1;HPM_P2
2022/03/06 00:00:26;;;;;;;38.38;17.50;;;1.20;99.90;;;;;;5035809;28;20079;-84
2022/03/06 00:02:51;;;;;;;40.92;17.95;;;1.20;99.90;;;;;;5025771;28;20030;-84
2022/03/06 00:05:17;;;;;;;38.80;17.08;;;1.20;99.90;;;;;;5035762;28;20450;-85
2022/03/06 00:07:42;;;;;;;36.55;17.17;;;1.20;99.90;;;;;;5032795;28;20037;-83
2022/03/06 00:10:08;;;;;;;42.40;17.52;;;1.20;99.90;;;;;;5031113;28;20116;-85
2022/03/06 00:12:34;;;;;;;34.85;16.98;;;1.20;99.90;;;;;;5023147;28;20030;-84
2022/03/06 00:14:59;;;;;;;37.45;16.80;;;1.20;99.90;;;;;;5033866;28;20037;-83
2022/03/06 00:17:26;;;;;;;38.60;16.42;;;1.10;99.90;;;;;;5034811;28;20030;-85
2022/03/06 00:19:51;;;;;;;35.47;16.45;;;1.10;99.90;;;;;;5034685;28;20024;-83
2022/03/06 00:22:17;;;;;;;32.38;14.18;;;1.10;99.90;;;;;;5034790;28;20401;-83
2022/03/06 00:24:42;;;;;;;35.78;15.75;;;1.10;99.90;;;;;;5033933;28;20037;-84
2022/03/06 00:27:08;;;;;;;37.38;16.58;;;1.10;99.90;;;;;;5034701;28;20036;-84
2022/03/06 00:29:33;;;;;;;39.58;16.20;;;1.00;99.90;;;;;;5026521;28;20117;-84
2022/03/06 00:31:59;;;;;;;37.20;16.23;;;1.00;99.90;;;;;;5034257;28;20029;-83
2022/03/06 00:34:24;;;;;;;39.05;16.95;;;1.00;99.90;;;;;;5025151;28;20079;-82
2022/03/06 00:36:50;;;;;;;40.85;17.65;;;0.90;99.90;;;;;;5023417;28;20020;-84
2022/03/06 00:39:16;;;;;;;36.50;16.45;;;0.80;99.90;;;;;;5035210;28;20489;-84
2022/03/06 00:41:41;;;;;;;35.35;16.48;;;0.70;99.90;;;;;;5030219;28;20056;-82
2022/03/06 00:44:07;;;;;;;37.60;17.35;;;0.60;99.90;;;;;;5016170;28;20449;-84
2022/03/06 00:46:32;;;;;;;39.83;16.35;;;0.50;99.90;;;;;;5034426;28;20029;-84
2022/03/06 00:48:58;;;;;;;35.70;16.13;;;0.50;99.90;;;;;;5034454;28;20533;-84
2022/03/06 00:51:23;;;;;;;34.90;15.52;;;0.40;99.90;;;;;;5034562;28;20079;-84
2022/03/06 00:53:49;;;;;;;31.35;13.70;;;0.40;99.90;;;;;;5034061;28;20087;-84
2022/03/06 00:56:15;;;;;;;40.00;16.70;;;0.40;99.90;;;;;;5034985;28;20152;-83
2022/03/06 00:58:40;;;;;;;31.95;15.57;;;0.40;99.90;;;;;;5035035;28;20037;-83
2022/03/06 01:01:06;;;;;;;35.00;15.80;;;0.40;99.90;;;;;;5032071;28;20037;-84
2022/03/06 01:03:32;;;;;;;33.28;15.18;;;0.30;99.90;;;;;;5032772;28;20034;-83
2022/03/06 01:05:58;;;;;;;37.15;15.82;;;0.20;99.90;;;;;;5034264;28;20041;-84
2022/03/06 01:08:23;;;;;;;37.20;15.77;;;0.10;99.90;;;;;;5034487;28;20036;-84
2022/03/06 01:10:50;;;;;;;33.92;13.82;;;0.00;99.90;;;;;;5032157;28;20037;-84
2022/03/06 01:13:18;;;;;;;34.88;15.68;;;0.00;99.90;;;;;;5033534;28;20040;-84
2022/03/06 01:15:44;;;;;;;35.50;15.13;;;0.00;99.90;;;;;;5034806;28;20025;-84
2022/03/06 01:18:10;;;;;;;38.55;15.82;;;0.00;99.90;;;;;;5031182;28;20032;-84
2022/03/06 01:20:37;;;;;;;38.40;16.40;;;0.00;99.90;;;;;;5034130;28;20048;-84
2022/03/06 01:23:04;;;;;;;40.30;16.35;;;0.00;99.90;;;;;;5033345;28;20033;-84
2022/03/06 01:25:30;;;;;;;35.00;15.43;;;-0.10;99.90;;;;;;5033645;28;20076;-84
2022/03/06 01:27:56;;;;;;;33.15;15.60;;;-0.10;99.90;;;;;;5034431;28;20049;-85
2022/03/06 01:30:22;;;;;;;34.70;14.80;;;-0.20;99.90;;;;;;5029430;28;20095;-84
2022/03/06 01:32:49;;;;;;;36.13;15.35;;;-0.20;99.90;;;;;;5034552;28;20026;-84
2022/03/06 01:35:15;;;;;;;35.90;15.20;;;-0.20;99.90;;;;;;5029630;28;20041;-84
2022/03/06 01:37:40;;;;;;;36.67;14.50;;;-0.20;99.90;;;;;;5033782;28;20021;-83
2022/03/06 01:40:08;;;;;;;36.50;16.63;;;-0.20;99.90;;;;;;5034288;28;20033;-83
2022/03/06 01:42:34;;;;;;;35.00;16.67;;;-0.20;99.90;;;;;;5034144;28;20017;-83
2022/03/06 01:45:00;;;;;;;37.58;16.60;;;-0.30;99.90;;;;;;5025823;28;20041;-83
2022/03/06 01:47:31;;;;;;;35.85;16.10;;;-0.30;99.90;;;;;;5027252;28;20103;-84
2022/03/06 01:49:57;;;;;;;37.72;17.00;;;-0.20;99.90;;;;;;5022238;28;20049;-84
2022/03/06 01:52:22;;;;;;;36.30;15.60;;;-0.30;99.90;;;;;;5033647;28;20079;-84
2022/03/06 01:54:48;;;;;;;29.02;13.82;;;-0.20;99.90;;;;;;5029262;28;20106;-84
2022/03/06 01:57:13;;;;;;;27.33;12.40;;;-0.30;99.90;;;;;;5032498;28;20025;-84
2022/03/06 01:59:39;;;;;;;40.53;15.55;;;-0.30;99.90;;;;;;5033509;28;20378;-84
2022/03/06 02:02:04;;;;;;;35.65;16.00;;;-0.30;99.90;;;;;;5033516;28;20035;-83
2022/03/06 02:04:30;;;;;;;30.00;13.77;;;-0.30;99.90;;;;;;5034232;28;20041;-83
2022/03/06 02:06:56;;;;;;;35.72;15.35;;;-0.30;99.90;;;;;;5030308;28;20037;-84
2022/03/06 02:09:21;;;;;;;37.60;16.02;;;-0.40;99.90;;;;;;5034058;28;20036;-83
2022/03/06 02:12:18;;;;;;;32.97;15.07;;;-0.40;99.90;;;;;;5023763;28;20061;-83
2022/03/06 02:14:33;;;;;;;34.75;15.68;;;-0.50;99.90;;;;;;5017413;28;20038;-84
2022/03/06 02:16:58;;;;;;;38.72;15.82;;;-0.50;99.90;;;;;;5032792;28;20021;-84
2022/03/06 02:19:24;;;;;;;30.48;14.05;;;-0.60;99.90;;;;;;5032822;28;20033;-84
2022/03/06 02:21:49;;;;;;;36.13;15.15;;;-0.60;99.90;;;;;;5031959;28;20041;-83
2022/03/06 02:24:15;;;;;;;36.13;16.02;;;-0.60;99.90;;;;;;5031792;28;20044;-83
2022/03/06 02:26:40;;;;;;;32.42;14.55;;;-0.60;99.90;;;;;;5032555;28;20033;-84
2022/03/06 02:29:06;;;;;;;32.40;14.35;;;-0.60;99.90;;;;;;5032430;28;20029;-84
2022/03/06 02:31:32;;;;;;;30.30;13.13;;;-0.70;99.90;;;;;;5032657;28;20501;-83
2022/03/06 02:33:58;;;;;;;32.45;15.95;;;-0.70;99.90;;;;;;5031330;28;20389;-84
2022/03/06 02:36:23;;;;;;;33.83;15.15;;;-0.70;99.90;;;;;;5028843;28;20029;-84
2022/03/06 02:38:50;;;;;;;32.75;14.68;;;-0.70;99.90;;;;;;5032302;28;20021;-84
2022/03/06 02:41:15;;;;;;;31.42;14.95;;;-0.70;99.90;;;;;;5033050;28;20273;-84
2022/03/06 02:43:41;;;;;;;35.20;15.48;;;-0.70;99.90;;;;;;5034188;28;20029;-84
2022/03/06 02:46:06;;;;;;;31.92;14.43;;;-0.70;99.90;;;;;;5030217;28;20521;-83
2022/03/06 02:48:32;;;;;;;36.78;16.67;;;-0.70;99.90;;;;;;5024248;28;20025;-84
2022/03/06 02:50:57;;;;;;;31.75;15.63;;;-0.70;99.90;;;;;;5024912;28;20040;-84
2022/03/06 02:53:23;;;;;;;35.47;15.70;;;-0.70;99.90;;;;;;5033279;28;20433;-83
2022/03/06 02:55:48;;;;;;;31.05;14.55;;;-0.70;99.90;;;;;;5032000;28;20037;-84
2022/03/06 02:58:14;;;;;;;31.35;15.25;;;-0.70;99.90;;;;;;5031362;28;20022;-84
2022/03/06 03:00:40;;;;;;;33.67;15.52;;;-0.70;99.90;;;;;;5032074;28;20100;-84
2022/03/06 03:03:06;;;;;;;32.40;16.08;;;-0.80;99.90;;;;;;5032953;28;20043;-83
2022/03/06 03:05:31;;;;;;;32.72;15.38;;;-0.70;99.90;;;;;;5033167;28;20061;-83
2022/03/06 03:07:57;;;;;;;30.05;14.40;;;-0.80;99.90;;;;;;5031620;28;20022;-83
2022/03/06 03:10:25;;;;;;;31.27;15.77;;;-0.80;99.90;;;;;;5032701;28;20026;-83
2022/03/06 03:12:51;;;;;;;29.80;14.48;;;-0.80;99.90;;;;;;5030392;28;20029;-84
2022/03/06 03:15:18;;;;;;;30.88;14.55;;;-0.80;99.90;;;;;;5025365;28;20029;-83
2022/03/06 03:17:44;;;;;;;29.25;14.23;;;-0.80;99.90;;;;;;5031388;28;20049;-83
2022/03/06 03:20:11;;;;;;;31.63;15.30;;;-0.80;99.90;;;;;;5032681;28;20358;-84
2022/03/06 03:22:37;;;;;;;31.00;15.27;;;-0.80;99.90;;;;;;5032757;28;20045;-83
2022/03/06 03:25:04;;;;;;;31.60;15.63;;;-0.80;99.90;;;;;;5025660;28;20045;-83
2022/03/06 03:27:29;;;;;;;30.40;15.20;;;-0.80;99.90;;;;;;5038089;28;20051;-83
2022/03/06 03:29:55;;;;;;;34.22;14.57;;;-0.80;99.90;;;;;;5018938;28;20030;-83
2022/03/06 03:32:20;;;;;;;28.60;13.57;;;-0.80;99.90;;;;;;5033549;28;20022;-82
2022/03/06 03:34:46;;;;;;;33.40;15.55;;;-0.80;99.90;;;;;;5032187;28;20049;-83
2022/03/06 03:37:11;;;;;;;28.08;14.10;;;-0.80;99.90;;;;;;5026171;28;20083;-84
2022/03/06 03:39:37;;;;;;;28.17;14.48;;;-0.80;99.90;;;;;;5028930;28;20041;-83
2022/03/06 03:42:03;;;;;;;32.60;14.75;;;-0.80;99.90;;;;;;5032871;28;20037;-84
2022/03/06 03:44:28;;;;;;;29.48;14.07;;;-0.80;99.90;;;;;;5031206;28;20037;-84
2022/03/06 03:46:53;;;;;;;30.60;15.45;;;-0.80;99.90;;;;;;5018658;28;20029;-83
2022/03/06 03:49:19;;;;;;;28.02;15.15;;;-0.80;99.90;;;;;;5024511;28;20386;-83
2022/03/06 03:51:45;;;;;;;29.02;14.55;;;-0.80;99.90;;;;;;5022317;28;20036;-82
2022/03/06 03:54:10;;;;;;;30.90;14.50;;;-0.80;99.90;;;;;;5031021;28;20034;-82
2022/03/06 03:56:36;;;;;;;26.90;14.57;;;-0.90;99.90;;;;;;5031306;28;20032;-83
2022/03/06 03:59:02;;;;;;;29.50;15.48;;;-0.90;99.90;;;;;;5032615;28;20080;-83
2022/03/06 04:01:27;;;;;;;31.42;13.82;;;-0.90;99.90;;;;;;5031757;28;20029;-83
2022/03/06 04:03:53;;;;;;;28.40;14.70;;;-0.90;99.90;;;;;;5031934;28;20036;-84
2022/03/06 04:06:19;;;;;;;30.27;15.05;;;-0.90;99.90;;;;;;5026004;28;20383;-83
2022/03/06 04:08:44;;;;;;;31.50;15.25;;;-0.90;99.90;;;;;;5032032;28;20015;-83
2022/03/06 04:11:10;;;;;;;26.35;14.85;;;-0.90;99.90;;;;;;5031937;28;20112;-83
2022/03/06 04:13:35;;;;;;;32.60;15.40;;;-0.90;99.90;;;;;;5027927;28;20036;-83
2022/03/06 04:16:01;;;;;;;29.80;15.55;;;-0.90;99.90;;;;;;5019221;28;20029;-83
2022/03/06 04:18:27;;;;;;;31.88;14.45;;;-0.90;99.90;;;;;;5030995;28;20052;-82
2022/03/06 04:20:53;;;;;;;28.67;15.57;;;-1.00;99.90;;;;;;5035060;28;20478;-82
2022/03/06 04:23:18;;;;;;;29.10;15.23;;;-1.00;99.90;;;;;;5034605;28;20518;-82
2022/03/06 04:25:44;;;;;;;29.83;13.88;;;-1.00;99.90;;;;;;5035438;28;20068;-82
2022/03/06 04:28:09;;;;;;;30.45;15.57;;;-1.00;99.90;;;;;;5035244;28;20033;-83
2022/03/06 04:30:35;;;;;;;26.45;14.55;;;-1.10;99.90;;;;;;5031043;28;20058;-82
2022/03/06 04:33:01;;;;;;;29.55;14.30;;;-1.10;99.90;;;;;;5033633;28;20103;-83
2022/03/06 04:35:27;;;;;;;25.98;13.50;;;-1.10;99.90;;;;;;5035198;28;20025;-82
2022/03/06 04:37:52;;;;;;;29.67;14.95;;;-1.10;99.90;;;;;;5034369;28;20034;-82
2022/03/06 04:40:18;;;;;;;26.73;15.23;;;-1.10;99.90;;;;;;5032449;28;20116;-82
2022/03/06 04:42:43;;;;;;;31.60;15.60;;;-1.10;99.90;;;;;;5033508;28;20052;-82
2022/03/06 04:45:09;;;;;;;30.83;16.35;;;-1.20;99.90;;;;;;5033629;28;20065;-82
2022/03/06 04:47:35;;;;;;;27.42;15.35;;;-1.10;99.90;;;;;;5035283;28;20021;-82
2022/03/06 04:50:00;;;;;;;30.40;14.43;;;-1.20;99.90;;;;;;5033883;28;20025;-82
2022/03/06 04:52:26;;;;;;;29.02;15.02;;;-1.20;99.90;;;;;;5034718;28;20033;-83
2022/03/06 04:54:52;;;;;;;31.65;16.38;;;-1.20;99.90;;;;;;5033267;28;20030;-82
2022/03/06 04:57:17;;;;;;;29.58;15.55;;;-1.30;99.90;;;;;;5026193;28;20026;-83
2022/03/06 04:59:43;;;;;;;27.08;14.02;;;-1.30;99.90;;;;;;5033858;28;20393;-81
2022/03/06 05:02:09;;;;;;;25.65;13.20;;;-1.30;99.90;;;;;;5034799;28;20405;-82
2022/03/06 05:04:34;;;;;;;28.10;14.27;;;-1.30;99.90;;;;;;5034353;28;20040;-82
2022/03/06 05:07:00;;;;;;;32.10;15.10;;;-1.30;99.90;;;;;;5032760;28;20037;-83
2022/03/06 05:09:26;;;;;;;26.30;13.30;;;-1.30;99.90;;;;;;5029478;23;20065;-83
2022/03/06 05:11:52;;;;;;;29.90;15.05;;;-1.30;99.90;;;;;;5002004;28;20112;-82
2022/03/06 05:14:18;;;;;;;24.95;12.63;;;-1.30;99.90;;;;;;5014691;28;20501;-82
2022/03/06 05:16:44;;;;;;;25.77;13.93;;;-1.30;99.90;;;;;;5014518;28;20030;-82
2022/03/06 05:19:09;;;;;;;28.08;14.23;;;-1.30;99.90;;;;;;5012286;28;20393;-82
2022/03/06 05:21:35;;;;;;;29.65;14.38;;;-1.30;99.90;;;;;;5014228;28;20105;-83
2022/03/06 05:24:01;;;;;;;28.42;15.18;;;-1.30;99.90;;;;;;5013187;28;20512;-82
2022/03/06 05:26:27;;;;;;;28.65;13.82;;;-1.30;99.90;;;;;;5002556;28;20065;-82
2022/03/06 05:28:52;;;;;;;28.73;14.88;;;-1.40;99.90;;;;;;5009663;28;20026;-81
2022/03/06 05:31:18;;;;;;;32.10;15.30;;;-1.40;99.90;;;;;;5015600;28;20474;-82
2022/03/06 05:33:44;;;;;;;27.95;13.95;;;-1.40;99.90;;;;;;5013792;28;20420;-82
2022/03/06 05:36:10;;;;;;;22.95;11.90;;;-1.40;99.90;;;;;;5013815;28;20105;-82
2022/03/06 05:38:35;;;;;;;28.50;14.52;;;-1.40;99.90;;;;;;5014086;28;20037;-81
2022/03/06 05:41:01;;;;;;;29.35;13.88;;;-1.40;99.90;;;;;;5014296;28;20057;-82
2022/03/06 05:43:27;;;;;;;29.55;14.40;;;-1.40;99.90;;;;;;5006779;28;20125;-82
2022/03/06 05:45:52;;;;;;;23.52;12.18;;;-1.50;99.90;;;;;;5011195;28;20049;-82
2022/03/06 05:48:19;;;;;;;27.48;14.02;;;-1.50;99.90;;;;;;5014564;28;20168;-82
2022/03/06 05:50:45;;;;;;;23.73;12.80;;;-1.50;99.90;;;;;;5012986;28;20033;-81
2022/03/06 05:53:10;;;;;;;29.08;15.10;;;-1.50;99.90;;;;;;5013513;28;20034;-81
2022/03/06 05:55:36;;;;;;;30.60;15.00;;;-1.50;99.90;;;;;;5013677;28;20045;-82
2022/03/06 05:58:01;;;;;;;29.15;14.93;;;-1.60;99.90;;;;;;5013947;28;20029;-82
2022/03/06 06:00:28;;;;;;;35.75;15.45;;;-1.50;99.90;;;;;;5013471;28;20030;-82
2022/03/06 06:02:55;;;;;;;30.83;14.68;;;-1.50;99.90;;;;;;5010627;28;20366;-82
2022/03/06 06:05:22;;;;;;;27.88;13.80;;;-1.50;99.90;;;;;;5013052;28;20573;-81
2022/03/06 06:07:48;;;;;;;31.00;15.80;;;-1.50;99.90;;;;;;5002416;28;20176;-82
2022/03/06 06:10:14;;;;;;;28.25;14.20;;;-1.50;99.90;;;;;;4989987;28;20042;-83
2022/03/06 06:12:40;;;;;;;30.33;14.80;;;-1.50;99.90;;;;;;5004878;28;20045;-85
2022/03/06 06:15:08;;;;;;;31.42;14.02;;;-1.50;99.90;;;;;;5014105;28;20034;-84
2022/03/06 06:17:33;;;;;;;27.02;14.27;;;-1.50;99.90;;;;;;5007093;28;20030;-84
2022/03/06 06:20:00;;;;;;;28.35;14.13;;;-1.60;99.90;;;;;;5009312;28;20041;-84
2022/03/06 06:22:26;;;;;;;34.95;16.10;;;-1.60;99.90;;;;;;5014579;28;20077;-84
2022/03/06 06:24:51;;;;;;;29.15;14.52;;;-1.60;99.90;;;;;;5014606;28;20374;-84
2022/03/06 06:27:18;;;;;;;32.15;15.18;;;-1.60;99.90;;;;;;5013418;28;20042;-84
2022/03/06 06:29:43;;;;;;;30.73;15.98;;;-1.60;99.90;;;;;;4999239;28;20034;-84
2022/03/06 06:32:09;;;;;;;29.33;14.60;;;-1.60;99.90;;;;;;5000249;28;20022;-84
2022/03/06 06:34:34;;;;;;;28.20;14.07;;;-1.50;99.90;;;;;;5003769;28;20030;-84
2022/03/06 06:37:01;;;;;;;28.30;15.43;;;-1.50;99.90;;;;;;5002581;28;20033;-84
2022/03/06 06:39:26;;;;;;;27.05;14.27;;;-1.50;99.90;;;;;;5003571;28;20398;-85
2022/03/06 06:41:52;;;;;;;31.25;14.98;;;-1.50;99.90;;;;;;4999194;28;20018;-84
2022/03/06 06:44:18;;;;;;;27.75;14.18;;;-1.50;99.90;;;;;;5008039;28;20376;-85
2022/03/06 06:46:43;;;;;;;27.27;12.73;;;-1.40;99.90;;;;;;5009455;28;20043;-84
2022/03/06 06:49:10;;;;;;;32.17;15.35;;;-1.40;99.90;;;;;;5010960;28;20030;-84
2022/03/06 06:51:38;;;;;;;27.17;13.80;;;-1.40;99.90;;;;;;5011275;28;20034;-85
2022/03/06 06:54:04;;;;;;;27.27;13.05;;;-1.30;99.90;;;;;;5012062;28;20072;-85
2022/03/06 06:56:30;;;;;;;26.88;13.77;;;-1.30;99.90;;;;;;5013090;28;20117;-85
2022/03/06 06:58:55;;;;;;;28.23;14.48;;;-1.30;99.90;;;;;;5009916;28;20030;-85
2022/03/06 07:01:21;;;;;;;24.17;13.50;;;-1.20;99.90;;;;;;5008888;28;20073;-84
2022/03/06 07:03:47;;;;;;;27.85;14.85;;;-1.20;99.90;;;;;;5004611;28;20056;-83
2022/03/06 07:06:12;;;;;;;24.80;14.00;;;-1.10;99.90;;;;;;5012110;28;20046;-83
2022/03/06 07:08:38;;;;;;;27.00;14.20;;;-1.10;99.90;;;;;;5009929;28;20044;-83
2022/03/06 07:11:03;;;;;;;26.17;14.02;;;-1.10;99.90;;;;;;5003285;28;20056;-83
2022/03/06 07:13:29;;;;;;;25.35;14.15;;;-1.00;99.90;;;;;;5009511;28;20053;-83
2022/03/06 07:15:54;;;;;;;27.75;15.27;;;-0.90;99.90;;;;;;5007377;28;20378;-84
2022/03/06 07:18:20;;;;;;;30.17;15.32;;;-0.90;99.90;;;;;;5001707;28;20021;-82
2022/03/06 07:20:45;;;;;;;24.98;14.43;;;-0.80;99.90;;;;;;5007190;28;20026;-82
2022/03/06 07:23:11;;;;;;;26.67;13.93;;;-0.80;99.90;;;;;;5010644;28;20096;-84
2022/03/06 07:25:40;;;;;;;26.45;15.15;;;-0.70;99.90;;;;;;5005290;28;20413;-83
2022/03/06 07:28:05;;;;;;;26.33;13.95;;;-0.70;99.90;;;;;;5010208;28;20022;-83
2022/03/06 07:30:31;;;;;;;31.98;15.45;;;-0.60;99.90;;;;;;5007114;28;20026;-81
2022/03/06 07:32:56;;;;;;;23.48;14.32;;;-0.60;99.90;;;;;;5001648;28;20034;-82
2022/03/06 07:35:23;;;;;;;27.75;14.77;;;-0.50;99.90;;;;;;4997707;28;20106;-82
2022/03/06 07:37:48;;;;;;;27.98;14.85;;;-0.40;99.90;;;;;;4998937;28;20110;-79
2022/03/06 07:40:16;;;;;;;27.02;15.65;;;-0.40;99.90;;;;;;5007466;28;20026;-79
2022/03/06 07:42:42;;;;;;;33.20;16.17;;;-0.30;99.90;;;;;;4997444;28;20077;-79
2022/03/06 07:45:09;;;;;;;27.33;15.00;;;-0.20;99.90;;;;;;5001828;28;20034;-80
2022/03/06 07:47:35;;;;;;;23.65;14.50;;;-0.10;99.90;;;;;;5000643;28;20486;-80
2022/03/06 07:50:01;;;;;;;26.90;15.32;;;0.00;99.90;;;;;;4998173;28;20034;-80
2022/03/06 07:52:26;;;;;;;25.27;14.73;;;0.00;99.90;;;;;;5004128;28;20034;-80
2022/03/06 07:54:52;;;;;;;24.42;13.88;;;0.10;99.90;;;;;;5008972;28;20026;-80
2022/03/06 07:57:17;;;;;;;27.35;16.02;;;0.10;99.90;;;;;;5006759;28;20022;-81
2022/03/06 07:59:43;;;;;;;25.15;13.90;;;0.20;99.90;;;;;;5007352;28;20022;-81
2022/03/06 08:02:09;;;;;;;27.05;16.60;;;0.30;99.90;;;;;;5008111;28;20021;-81
2022/03/06 08:04:34;;;;;;;25.55;14.38;;;0.40;99.90;;;;;;5002812;28;20039;-81
2022/03/06 08:07:00;;;;;;;30.90;16.65;;;0.40;99.90;;;;;;5011176;28;20148;-81
2022/03/06 08:09:25;;;;;;;24.75;15.20;;;0.50;99.90;;;;;;5010237;28;20117;-80
2022/03/06 08:11:52;;;;;;;26.92;15.48;;;0.60;99.90;;;;;;5011518;28;20033;-81
2022/03/06 08:14:17;;;;;;;29.75;15.85;;;0.70;99.90;;;;;;5013881;28;20033;-80
2022/03/06 08:16:43;;;;;;;29.35;15.82;;;0.70;99.90;;;;;;5011290;28;20026;-81
2022/03/06 08:19:08;;;;;;;25.52;14.65;;;0.90;99.90;;;;;;5015386;28;20034;-82
2022/03/06 08:21:34;;;;;;;26.30;15.05;;;0.90;99.90;;;;;;5014875;28;20018;-82
2022/03/06 08:24:00;;;;;;;24.10;14.60;;;1.00;99.90;;;;;;5015966;28;20153;-81
2022/03/06 08:26:26;;;;;;;27.58;16.13;;;1.00;99.90;;;;;;5009667;28;20062;-82
2022/03/06 08:28:52;;;;;;;20.95;12.90;;;1.10;99.90;;;;;;5003641;28;20092;-82
2022/03/06 08:31:18;;;;;;;24.48;14.05;;;1.10;99.90;;;;;;5002459;28;20061;-83
2022/03/06 08:33:44;;;;;;;19.73;13.60;;;1.20;99.90;;;;;;5001771;28;20100;-83
2022/03/06 08:36:09;;;;;;;19.75;12.25;;;1.30;99.90;;;;;;4999866;28;20109;-82
2022/03/06 08:38:35;;;;;;;24.27;14.05;;;1.30;99.90;;;;;;4998101;28;20156;-81
2022/03/06 08:41:00;;;;;;;21.55;13.40;;;1.40;99.90;;;;;;5003717;28;20040;-81
2022/03/06 08:43:26;;;;;;;23.55;13.52;;;1.50;99.90;;;;;;4996423;28;20027;-82
2022/03/06 08:45:51;;;;;;;21.52;13.80;;;1.60;99.90;;;;;;5001966;28;20064;-81
2022/03/06 08:48:17;;;;;;;20.52;12.10;;;1.70;99.90;;;;;;5002447;28;20064;-83
2022/03/06 08:50:42;;;;;;;20.75;12.88;;;1.70;99.90;;;;;;4997497;28;20037;-82
2022/03/06 08:53:08;;;;;;;20.27;12.32;;;1.90;99.90;;;;;;5001917;28;20524;-83
2022/03/06 08:55:33;;;;;;;17.98;11.55;;;2.00;99.90;;;;;;5001368;28;20030;-83
2022/03/06 08:57:59;;;;;;;21.88;12.13;;;2.00;99.90;;;;;;5002177;28;20072;-83
2022/03/06 09:00:25;;;;;;;24.55;13.52;;;2.10;99.90;;;;;;4998276;28;20084;-83
2022/03/06 09:02:50;;;;;;;16.65;9.50;;;2.10;99.90;;;;;;5000703;28;20050;-83
2022/03/06 09:05:16;;;;;;;18.15;11.23;;;2.20;99.90;;;;;;5004200;28;20096;-83
2022/03/06 09:07:42;;;;;;;18.38;11.45;;;2.20;99.90;;;;;;4999109;28;20506;-83
2022/03/06 09:10:09;;;;;;;19.75;11.63;;;2.30;99.90;;;;;;5000185;28;20046;-83
2022/03/06 09:12:35;;;;;;;18.48;12.13;;;2.40;99.90;;;;;;5005995;28;20034;-82
2022/03/06 09:15:00;;;;;;;19.30;10.85;;;2.40;99.90;;;;;;5003658;28;20027;-84
2022/03/06 09:17:26;;;;;;;18.25;11.68;;;2.50;99.90;;;;;;5001315;28;20026;-83
2022/03/06 09:19:51;;;;;;;17.40;11.32;;;2.60;99.90;;;;;;5010587;28;20473;-84
2022/03/06 09:22:17;;;;;;;14.10;9.07;;;2.70;99.90;;;;;;5008494;28;20037;-82
2022/03/06 09:24:42;;;;;;;16.80;10.27;;;2.80;99.90;;;;;;5002222;28;20030;-84
2022/03/06 09:27:08;;;;;;;15.88;10.18;;;2.90;99.90;;;;;;5004446;28;20026;-82
2022/03/06 09:29:33;;;;;;;14.25;9.32;;;3.00;99.90;;;;;;5002249;28;20029;-82
2022/03/06 09:31:59;;;;;;;18.08;10.82;;;3.00;99.90;;;;;;5005063;28;20105;-83
2022/03/06 09:34:25;;;;;;;17.40;9.10;;;3.10;99.90;;;;;;5002372;28;20068;-82
2022/03/06 09:36:50;;;;;;;16.27;9.20;;;3.30;99.90;;;;;;5000846;28;20092;-83
2022/03/06 09:39:16;;;;;;;16.52;9.30;;;3.40;99.90;;;;;;5001888;28;20034;-82
2022/03/06 09:41:42;;;;;;;13.45;9.02;;;3.40;99.90;;;;;;4997634;28;20149;-82
2022/03/06 09:44:12;;;;;;;16.52;8.98;;;3.50;99.90;;;;;;5003224;28;20458;-83
2022/03/06 09:46:39;;;;;;;16.25;8.88;;;3.60;99.90;;;;;;4999865;28;20080;-82
2022/03/06 09:49:06;;;;;;;14.60;8.13;;;3.60;99.90;;;;;;4997743;28;20034;-83
2022/03/06 09:51:33;;;;;;;15.02;8.02;;;3.70;99.90;;;;;;4998323;28;20122;-81
2022/03/06 09:53:59;;;;;;;14.30;8.38;;;3.70;99.90;;;;;;5004080;28;20076;-82
2022/03/06 09:56:25;;;;;;;13.73;8.32;;;3.80;99.90;;;;;;5000219;28;20026;-82
2022/03/06 09:58:50;;;;;;;14.70;8.38;;;3.90;99.90;;;;;;5004118;28;20030;-83
2022/03/06 10:01:16;;;;;;;16.58;8.70;;;4.00;99.90;;;;;;4998007;28;20141;-82
2022/03/06 10:03:41;;;;;;;14.82;8.32;;;4.00;99.90;;;;;;5004088;28;20057;-82
2022/03/06 10:06:07;;;;;;;12.02;7.60;;;4.10;99.90;;;;;;4998490;28;21968;-83
2022/03/06 10:08:33;;;;;;;12.57;7.40;;;4.20;99.90;;;;;;5001700;28;20505;-82
2022/03/06 10:11:01;;;;;;;12.77;7.60;;;4.20;99.90;;;;;;4998505;28;20033;-83
2022/03/06 10:13:31;;;;;;;13.15;6.93;;;4.20;99.90;;;;;;4998584;28;20064;-82
2022/03/06 10:15:59;;;;;;;11.02;6.90;;;4.30;99.90;;;;;;5002196;28;20046;-82
2022/03/06 10:18:25;;;;;;;12.00;8.02;;;4.30;99.90;;;;;;4999392;28;20026;-82
2022/03/06 10:20:50;;;;;;;10.13;6.47;;;4.30;99.90;;;;;;5003326;28;20041;-82
2022/03/06 10:23:26;;;;;;;13.85;6.70;;;4.40;99.90;;;;;;5001874;28;20027;-82
2022/03/06 10:26:06;;;;;;;10.35;5.95;;;4.50;99.90;;;;;;4998485;28;20030;-82
2022/03/06 10:28:48;;;;;;;11.90;7.03;;;4.60;99.90;;;;;;4996812;28;20056;-82
2022/03/06 10:31:15;;;;;;;9.98;6.10;;;4.70;99.90;;;;;;5002884;28;20049;-82
2022/03/06 10:33:40;;;;;;;10.88;6.47;;;4.70;99.50;;;;;;5001759;28;20041;-82
2022/03/06 10:36:12;;;;;;;11.13;6.50;;;4.70;98.70;;;;;;4999542;28;20421;-81
2022/03/06 10:38:37;;;;;;;11.13;6.68;;;4.80;98.30;;;;;;5000848;28;20375;-81
2022/03/06 10:41:12;;;;;;;10.57;5.60;;;4.80;98.10;;;;;;4998952;28;20084;-82
2022/03/06 10:43:38;;;;;;;10.57;6.45;;;4.90;98.00;;;;;;5000151;28;20026;-82
2022/03/06 10:46:05;;;;;;;12.38;6.60;;;5.00;97.70;;;;;;4995205;28;20371;-82
2022/03/06 10:48:31;;;;;;;10.40;6.55;;;5.10;97.60;;;;;;4997562;28;20076;-80
2022/03/06 10:51:01;;;;;;;11.52;6.72;;;5.20;97.20;;;;;;5000018;28;20064;-80
2022/03/06 10:53:30;;;;;;;10.82;7.07;;;5.30;96.30;;;;;;4996794;28;20109;-80
2022/03/06 10:56:04;;;;;;;11.23;6.25;;;5.30;94.90;;;;;;4998574;28;20394;-79
2022/03/06 10:58:31;;;;;;;15.18;7.35;;;5.40;94.30;;;;;;4997903;28;20049;-81
2022/03/06 11:00:57;;;;;;;11.40;6.55;;;5.40;93.60;;;;;;4993233;28;20041;-79
2022/03/06 11:03:23;;;;;;;9.73;5.88;;;5.40;92.10;;;;;;4997792;28;20038;-79
2022/03/06 11:05:49;;;;;;;10.25;5.60;;;5.40;92.50;;;;;;4999545;28;20107;-80
2022/03/06 11:08:16;;;;;;;10.57;5.90;;;5.50;92.30;;;;;;4997626;28;20499;-81
2022/03/06 11:10:43;;;;;;;9.55;5.85;;;5.60;91.50;;;;;;4994780;28;20176;-81
2022/03/06 11:13:13;;;;;;;11.05;5.68;;;5.60;91.70;;;;;;5001573;28;20041;-81
2022/03/06 11:15:39;;;;;;;11.05;5.55;;;5.70;91.90;;;;;;4999152;28;20029;-81
2022/03/06 11:18:06;;;;;;;9.68;6.10;;;5.80;92.00;;;;;;4998255;28;20029;-82
2022/03/06 11:20:33;;;;;;;16.38;7.38;;;6.00;92.50;;;;;;4996883;28;20031;-82
2022/03/06 11:23:12;;;;;;;10.13;6.15;;;6.10;91.10;;;;;;4998486;28;20359;-82
2022/03/06 11:25:49;;;;;;;11.75;6.80;;;6.20;90.50;;;;;;4996789;28;20096;-81
2022/03/06 11:28:31;;;;;;;10.70;6.30;;;6.30;90.00;;;;;;5003581;28;20130;-82
2022/03/06 11:30:59;;;;;;;11.07;7.18;;;6.40;90.00;;;;;;5002181;28;20107;-81
2022/03/06 11:33:25;;;;;;;10.75;6.30;;;6.40;87.40;;;;;;5005219;28;20060;-81
2022/03/06 11:35:51;;;;;;;11.00;6.82;;;6.40;84.60;;;;;;5004590;28;20505;-82
2022/03/06 11:38:20;;;;;;;10.85;7.13;;;6.40;82.10;;;;;;5001527;28;20096;-81
2022/03/06 11:40:51;;;;;;;10.48;6.45;;;6.30;82.20;;;;;;5001336;28;20038;-81
2022/03/06 11:43:32;;;;;;;9.13;5.80;;;6.40;82.50;;;;;;5006169;28;20026;-81
2022/03/06 11:46:14;;;;;;;10.48;6.22;;;6.50;83.10;;;;;;5002924;28;20050;-82
2022/03/06 11:48:45;;;;;;;8.25;6.00;;;6.60;82.10;;;;;;5000359;28;20026;-82
2022/03/06 11:51:22;;;;;;;10.13;5.65;;;6.60;80.90;;;;;;5005960;28;20034;-82
2022/03/06 11:54:14;;;;;;;11.40;7.30;;;6.60;79.00;;;;;;5005336;28;20026;-81
2022/03/06 11:56:46;;;;;;;10.63;6.32;;;6.60;79.50;;;;;;5004730;28;20262;-82
2022/03/06 11:59:26;;;;;;;11.30;7.30;;;6.70;77.90;;;;;;5003187;28;20034;-79
2022/03/06 12:01:56;;;;;;;10.07;6.03;;;6.80;76.40;;;;;;5000489;28;20038;-78
2022/03/06 12:04:26;;;;;;;10.52;5.88;;;6.80;75.00;;;;;;5006509;28;20109;-78
2022/03/06 12:06:55;;;;;;;11.75;6.43;;;6.80;73.30;;;;;;5000984;28;20030;-79
2022/03/06 12:09:39;;;;;;;9.40;5.97;;;6.70;73.70;;;;;;5006625;28;20038;-79
2022/03/06 12:12:07;;;;;;;9.00;5.65;;;6.70;73.50;;;;;;5003164;28;20027;-79
2022/03/06 12:14:57;;;;;;;11.02;5.65;;;6.60;72.30;;;;;;5001587;28;20022;-81
2022/03/06 12:17:37;;;;;;;7.75;5.25;;;6.40;70.70;;;;;;5003704;28;20034;-80
2022/03/06 12:20:15;;;;;;;10.50;6.10;;;6.30;71.80;;;;;;5001210;28;20128;-79
2022/03/06 12:22:48;;;;;;;9.85;5.75;;;6.30;71.50;;;;;;5002504;28;20018;-79
2022/03/06 12:25:14;;;;;;;8.70;5.70;;;6.30;71.50;;;;;;5006864;28;20393;-79
2022/03/06 12:27:42;;;;;;;8.30;5.38;;;6.50;71.90;;;;;;5011953;28;20026;-79
2022/03/06 12:30:10;;;;;;;8.80;5.90;;;6.80;72.10;;;;;;5007685;28;20121;-79
2022/03/06 12:32:38;;;;;;;7.55;4.97;;;7.10;72.00;;;;;;5006157;28;20017;-80